createdAt,value
2022-07-25T00:02:19.900Z,98878.84
2022-07-25T00:04:49.533Z,98869.28
2022-07-25T00:07:17.393Z,98868.34
2022-07-25T00:09:45.285Z,98866.63
2022-07-25T00:12:13.962Z,98860.59
2022-07-25T00:14:41.844Z,98862.19
2022-07-25T00:17:11.113Z,98860.59
2022-07-25T00:19:39.024Z,98863.97
2022-07-25T00:22:06.974Z,98863.13
2022-07-25T00:24:35.184Z,98862.09
2022-07-25T00:27:03.825Z,98853.13
2022-07-25T00:29:31.763Z,98856.91
2022-07-25T00:31:59.870Z,98842.22
2022-07-25T00:34:28.998Z,98848.75
2022-07-25T00:36:56.843Z,98844.38
2022-07-25T00:39:24.676Z,98851.81
2022-07-25T00:41:52.505Z,98851.50
2022-07-25T00:44:25.287Z,98853.09
2022-07-25T00:46:53.482Z,98850.06
2022-07-25T00:49:21.361Z,98841.69
2022-07-25T00:51:51.456Z,98850.44
2022-07-25T00:54:19.730Z,98848.75
2022-07-25T00:56:47.670Z,98839.59
2022-07-25T00:59:16.659Z,98836.94
2022-07-25T01:01:45.679Z,98831.50
2022-07-25T01:04:13.626Z,98823.00
2022-07-25T01:06:41.636Z,98823.03
2022-07-25T01:09:10.899Z,98820.25
2022-07-25T01:11:39.353Z,98832.72
2022-07-25T01:14:08.032Z,98815.63
2022-07-25T01:16:36.428Z,98816.41
2022-07-25T01:19:04.594Z,98821.56
2022-07-25T01:21:33.832Z,98818.09
2022-07-25T01:24:01.796Z,98817.69
2022-07-25T01:26:30.550Z,98817.75
2022-07-25T01:28:58.547Z,98818.38
2022-07-25T01:31:26.685Z,98823.69
2022-07-25T01:33:54.583Z,98827.94
2022-07-25T01:36:22.484Z,98825.28
2022-07-25T01:38:51.703Z,98827.69
2022-07-25T01:41:22.671Z,98829.63
2022-07-25T01:43:50.899Z,98826.00
2022-07-25T01:46:18.879Z,98829.16
2022-07-25T01:48:46.873Z,98829.34
2022-07-25T01:51:14.855Z,98835.56
2022-07-25T01:53:48.633Z,98830.97
2022-07-25T01:56:18.127Z,98832.13
2022-07-25T01:58:49.769Z,98830.50
2022-07-25T02:01:17.681Z,98829.41
2022-07-25T02:03:49.403Z,98822.88
2022-07-25T02:06:18.889Z,98830.00
2022-07-25T02:08:46.899Z,98831.75
2022-07-25T02:11:14.857Z,98826.28
2022-07-25T02:13:44.668Z,98829.53
2022-07-25T02:16:12.869Z,98829.41
2022-07-25T02:18:40.957Z,98828.56
2022-07-25T02:21:14.507Z,98824.25
2022-07-25T02:23:43.282Z,98823.97
2022-07-25T02:26:11.737Z,98809.53
2022-07-25T02:28:39.885Z,98813.25
2022-07-25T02:31:09.727Z,98807.03
2022-07-25T02:33:38.022Z,98801.44
2022-07-25T02:36:06.107Z,98804.09
2022-07-25T02:38:33.972Z,98799.91
2022-07-25T02:41:02.190Z,98793.38
2022-07-25T02:43:29.990Z,98802.25
2022-07-25T02:45:58.057Z,98793.56
2022-07-25T02:48:27.374Z,98786.53
2022-07-25T02:50:55.191Z,98792.13
2022-07-25T02:53:46.800Z,98777.88
2022-07-25T02:56:10.831Z,98775.56
2022-07-25T02:58:39.343Z,98779.94
2022-07-25T03:01:07.884Z,98763.38
2022-07-25T03:03:37.258Z,98768.47
2022-07-25T03:06:05.483Z,98767.09
2022-07-25T03:08:33.418Z,98764.94
2022-07-25T03:11:01.245Z,98768.44
2022-07-25T03:13:28.969Z,98766.97
2022-07-25T03:15:57.042Z,98757.63
2022-07-25T03:18:24.797Z,98756.84
2022-07-25T03:20:53.995Z,98758.81
2022-07-25T03:23:21.767Z,98752.56
2022-07-25T03:25:49.669Z,98748.66
2022-07-25T03:28:17.467Z,98751.59
2022-07-25T03:30:45.384Z,98745.94
2022-07-25T03:33:13.160Z,98748.66
2022-07-25T03:35:41.046Z,98748.88
2022-07-25T03:38:10.313Z,98739.63
2022-07-25T03:40:38.314Z,98740.59
2022-07-25T03:43:06.415Z,98744.66
2022-07-25T03:45:34.277Z,98742.72
2022-07-25T03:48:02.098Z,98737.19
2022-07-25T03:50:29.953Z,98742.53
2022-07-25T03:52:57.779Z,98736.19
2022-07-25T03:55:27.891Z,98736.84
2022-07-25T03:57:55.696Z,98734.31
2022-07-25T04:00:23.433Z,98724.38
2022-07-25T04:02:51.353Z,98726.72
2022-07-25T04:05:19.194Z,98726.81
2022-07-25T04:07:46.907Z,98720.91
2022-07-25T04:10:14.746Z,98720.22
2022-07-25T04:12:45.601Z,98714.84
2022-07-25T04:15:13.726Z,98711.22
2022-07-25T04:17:41.495Z,98715.91
2022-07-25T04:20:10.172Z,98708.03
2022-07-25T04:22:40.092Z,98703.56
2022-07-25T04:25:10.472Z,98706.00
2022-07-25T04:27:38.415Z,98713.06
2022-07-25T04:30:08.807Z,98704.28
2022-07-25T04:32:36.564Z,98705.31
2022-07-25T04:35:04.662Z,98707.63
2022-07-25T04:37:32.766Z,98707.63
2022-07-25T04:40:00.508Z,98701.88
2022-07-25T04:42:28.358Z,98703.44
2022-07-25T04:44:56.208Z,98697.50
2022-07-25T04:47:25.327Z,98689.72
2022-07-25T04:49:53.490Z,98689.66
2022-07-25T04:52:21.937Z,98697.25
2022-07-25T04:54:49.917Z,98688.28
2022-07-25T04:57:17.854Z,98683.63
2022-07-25T04:59:45.727Z,98681.72
2022-07-25T05:02:13.567Z,98694.00
2022-07-25T05:04:45.292Z,98693.94
2022-07-25T05:07:13.466Z,98697.72
2022-07-25T05:09:41.497Z,98706.72
2022-07-25T05:12:10.106Z,98706.44
2022-07-25T05:14:38.580Z,98706.84
2022-07-25T05:17:06.565Z,98717.91
2022-07-25T05:19:35.070Z,98716.06
2022-07-25T05:22:04.624Z,98708.72
2022-07-25T05:24:34.364Z,98703.25
2022-07-25T05:27:02.291Z,98705.50
2022-07-25T05:29:30.085Z,98701.88
2022-07-25T05:31:57.960Z,98699.06
2022-07-25T05:34:25.872Z,98702.53
2022-07-25T05:36:53.658Z,98704.06
2022-07-25T05:39:23.022Z,98692.88
2022-07-25T05:41:50.822Z,98688.25
2022-07-25T05:44:18.815Z,98695.78
2022-07-25T05:46:46.831Z,98693.00
2022-07-25T05:49:16.051Z,98698.50
2022-07-25T05:51:44.039Z,98695.97
2022-07-25T05:54:11.819Z,98700.59
2022-07-25T05:56:41.045Z,98698.59
2022-07-25T05:59:09.181Z,98702.44
2022-07-25T06:01:37.287Z,98699.13
2022-07-25T06:04:05.711Z,98702.25
2022-07-25T06:06:33.707Z,98699.94
2022-07-25T06:09:01.428Z,98690.38
2022-07-25T06:14:00.284Z,98691.06
2022-07-25T06:16:28.448Z,98695.38
2022-07-25T06:18:56.368Z,98690.00
2022-07-25T06:21:24.233Z,98688.22
2022-07-25T06:23:52.019Z,98689.69
2022-07-25T06:26:19.961Z,98684.22
2022-07-25T06:28:47.817Z,98677.97
2022-07-25T06:31:17.215Z,98677.78
2022-07-25T06:33:44.998Z,98681.38
2022-07-25T06:36:12.856Z,98672.09
2022-07-25T06:38:40.644Z,98677.16
2022-07-25T06:41:08.442Z,98666.13
2022-07-25T06:43:36.328Z,98666.63
2022-07-25T06:46:04.093Z,98670.41
2022-07-25T06:48:33.264Z,98659.28
2022-07-25T06:51:01.073Z,98664.69
2022-07-25T06:53:29.303Z,98662.78
2022-07-25T06:55:57.132Z,98659.88
2022-07-25T06:58:25.934Z,98655.13
2022-07-25T07:00:53.946Z,98646.03
2022-07-25T07:03:21.974Z,98647.94
2022-07-25T07:05:51.401Z,98646.66
2022-07-25T07:08:19.274Z,98643.22
2022-07-25T07:10:47.284Z,98646.56
2022-07-25T07:13:22.249Z,98641.31
2022-07-25T07:15:52.453Z,98632.88
2022-07-25T07:18:21.392Z,98625.34
2022-07-25T07:20:49.294Z,98632.53
2022-07-25T07:23:19.199Z,98630.75
2022-07-25T07:25:47.708Z,98623.47
2022-07-25T07:28:16.499Z,98618.13
2022-07-25T07:31:15.811Z,98610.25
2022-07-25T07:33:33.415Z,98608.41
2022-07-25T07:36:01.307Z,98610.47
2022-07-25T07:38:30.603Z,98606.50
2022-07-25T07:40:58.476Z,98598.44
2022-07-25T07:43:29.952Z,98594.78
2022-07-25T07:46:00.760Z,98593.00
2022-07-25T07:48:29.432Z,98597.16
2022-07-25T07:50:57.647Z,98598.91
2022-07-25T07:53:45.711Z,98588.53
2022-07-25T07:56:14.994Z,98586.56
2022-07-25T07:58:42.957Z,98586.22
2022-07-25T08:01:10.887Z,98587.94
2022-07-25T08:03:38.867Z,98587.09
2022-07-25T08:06:07.510Z,98585.94
2022-07-25T08:08:35.569Z,98582.81
2022-07-25T08:11:03.427Z,98580.41
2022-07-25T08:13:34.086Z,98586.03
2022-07-25T08:16:03.574Z,98588.38
2022-07-25T08:18:32.861Z,98590.66
2022-07-25T08:21:02.947Z,98573.50
2022-07-25T08:23:31.842Z,98572.97
2022-07-25T08:26:00.725Z,98572.22
2022-07-25T08:28:28.888Z,98574.41
2022-07-25T08:30:59.003Z,98567.41
2022-07-25T08:33:26.949Z,98563.81
2022-07-25T08:35:56.424Z,98569.00
2022-07-25T08:38:26.172Z,98558.09
2022-07-25T08:40:54.380Z,98560.75
2022-07-25T08:43:22.450Z,98555.88
2022-07-25T08:45:51.851Z,98559.59
2022-07-25T08:48:23.422Z,98547.84
2022-07-25T08:50:52.254Z,98546.00
2022-07-25T08:53:36.902Z,98545.84
2022-07-25T08:56:12.647Z,98543.88
2022-07-25T08:58:44.604Z,98540.56
2022-07-25T09:01:13.611Z,98536.13
2022-07-25T09:03:43.447Z,98537.66
2022-07-25T09:06:14.918Z,98529.72
2022-07-25T09:08:52.717Z,98531.69
2022-07-25T09:11:31.266Z,98530.94
2022-07-25T09:14:01.470Z,98529.28
2022-07-25T09:16:33.925Z,98524.97
2022-07-25T09:19:12.050Z,98521.97
2022-07-25T09:21:40.918Z,98518.28
2022-07-25T09:24:14.097Z,98522.50
2022-07-25T09:26:49.717Z,98512.47
2022-07-25T09:29:23.606Z,98508.50
2022-07-25T09:31:52.429Z,98515.91
2022-07-25T09:34:37.813Z,98519.38
2022-07-25T09:37:07.807Z,98512.84
2022-07-25T09:39:46.091Z,98508.28
2022-07-25T09:42:22.471Z,98527.16
2022-07-25T09:45:06.522Z,98507.94
2022-07-25T09:47:36.653Z,98513.34
2022-07-25T09:50:07.475Z,98495.69
2022-07-25T09:52:36.752Z,98508.91
2022-07-25T09:55:06.384Z,98498.34
2022-07-25T09:57:34.205Z,98505.69
2022-07-25T10:00:02.662Z,98505.56
2022-07-25T10:02:48.622Z,98504.53
2022-07-25T10:05:26.783Z,98503.22
2022-07-25T10:07:56.284Z,98495.31
2022-07-25T10:10:30.521Z,98497.47
2022-07-25T10:13:09.508Z,98492.66
2022-07-25T10:15:47.393Z,98488.88
2022-07-25T10:18:16.825Z,98482.69
2022-07-25T10:20:47.186Z,98470.63
2022-07-25T10:23:21.944Z,98476.84
2022-07-25T10:26:01.303Z,98476.22
2022-07-25T10:28:38.841Z,98468.78
2022-07-25T10:31:17.220Z,98460.97
2022-07-25T10:33:49.583Z,98475.50
2022-07-25T10:36:19.498Z,98470.25
2022-07-25T10:38:48.022Z,98475.53
2022-07-25T10:41:17.489Z,98459.53
2022-07-25T10:43:48.670Z,98446.78
2022-07-25T10:46:20.488Z,98447.81
2022-07-25T10:48:59.114Z,98452.81
2022-07-25T10:51:30.078Z,98446.84
2022-07-25T10:53:58.719Z,98446.53
2022-07-25T10:56:28.714Z,98448.75
2022-07-25T10:58:58.369Z,98443.41
2022-07-25T11:01:27.200Z,98437.38
2022-07-25T11:03:56.471Z,98440.78
2022-07-25T11:06:34.564Z,98437.63
2022-07-25T11:09:03.678Z,98449.28
2022-07-25T11:11:40.459Z,98445.13
2022-07-25T11:14:16.582Z,98438.94
2022-07-25T11:16:46.271Z,98427.34
2022-07-25T11:19:22.469Z,98430.19
2022-07-25T11:21:53.560Z,98430.50
2022-07-25T11:24:21.782Z,98433.28
2022-07-25T11:26:51.615Z,98415.63
2022-07-25T11:29:20.763Z,98414.50
2022-07-25T11:31:56.564Z,98417.34
2022-07-25T11:34:28.356Z,98419.84
2022-07-25T11:36:59.747Z,98416.09
2022-07-25T11:39:28.724Z,98413.72
2022-07-25T11:42:01.609Z,98403.50
2022-07-25T11:44:33.974Z,98401.75
2022-07-25T11:47:02.195Z,98414.00
2022-07-25T11:49:30.223Z,98401.38
2022-07-25T11:51:59.397Z,98409.09
2022-07-25T11:54:27.235Z,98402.81
2022-07-25T11:56:55.108Z,98403.88
2022-07-25T11:59:22.919Z,98389.50
2022-07-25T12:01:51.390Z,98392.56
2022-07-25T12:04:20.909Z,98392.41
2022-07-25T12:06:50.251Z,98381.91
2022-07-25T12:09:21.704Z,98389.31
2022-07-25T12:11:50.422Z,98383.97
2022-07-25T12:14:18.326Z,98386.25
2022-07-25T12:16:46.199Z,98384.59
2022-07-25T12:19:22.599Z,98384.09
2022-07-25T12:21:50.883Z,98388.31
2022-07-25T12:24:20.777Z,98381.16
2022-07-25T12:26:49.259Z,98389.16
2022-07-25T12:29:17.419Z,98379.81
2022-07-25T12:31:45.816Z,98393.31
2022-07-25T12:34:14.428Z,98385.84
2022-07-25T12:36:45.200Z,98388.56
2022-07-25T12:39:13.656Z,98370.63
2022-07-25T12:41:45.633Z,98391.19
2022-07-25T12:44:15.297Z,98374.81
2022-07-25T12:46:49.106Z,98381.34
2022-07-25T12:49:18.080Z,98370.59
2022-07-25T12:51:46.560Z,98377.38
2022-07-25T12:54:21.710Z,98379.06
2022-07-25T12:56:52.517Z,98386.44
2022-07-25T12:59:21.263Z,98368.81
2022-07-25T13:01:49.823Z,98378.13
2022-07-25T13:04:18.515Z,98373.28
2022-07-25T13:06:46.975Z,98375.59
2022-07-25T13:09:15.493Z,98370.78
2022-07-25T13:11:46.569Z,98372.91
2022-07-25T13:14:21.564Z,98368.38
2022-07-25T13:16:50.036Z,98369.25
2022-07-25T13:19:21.103Z,98375.78
2022-07-25T13:21:49.944Z,98368.59
2022-07-25T13:24:21.827Z,98368.66
2022-07-25T13:26:50.272Z,98369.16
2022-07-25T13:29:20.234Z,98368.53
2022-07-25T13:31:50.940Z,98365.53
2022-07-25T13:34:20.322Z,98360.41
2022-07-25T13:36:49.349Z,98361.19
2022-07-25T13:39:18.061Z,98364.06
2022-07-25T13:41:48.698Z,98355.88
2022-07-25T13:44:17.529Z,98358.13
2022-07-25T13:46:49.994Z,98358.63
2022-07-25T13:49:18.815Z,98361.28
2022-07-25T13:51:47.645Z,98361.88
2022-07-25T13:54:17.117Z,98346.53
2022-07-25T13:56:45.704Z,98352.94
2022-07-25T13:59:20.501Z,98350.19
2022-07-25T14:01:50.834Z,98348.47
2022-07-25T14:04:18.764Z,98342.94
2022-07-25T14:06:51.810Z,98347.28
2022-07-25T14:09:21.041Z,98338.16
2022-07-25T14:11:49.543Z,98337.09
2022-07-25T14:14:18.051Z,98331.53
2022-07-25T14:16:46.078Z,98340.56
2022-07-25T14:19:16.014Z,98331.53
2022-07-25T14:21:43.954Z,98331.63
2022-07-25T14:24:11.794Z,98332.66
2022-07-25T14:26:39.642Z,98330.13
2022-07-25T14:29:11.108Z,98325.16
2022-07-25T14:31:40.877Z,98320.59
2022-07-25T14:34:08.651Z,98317.06
2022-07-25T14:36:37.833Z,98314.59
2022-07-25T14:39:06.696Z,98318.13
2022-07-25T14:41:35.235Z,98324.97
2022-07-25T14:44:03.184Z,98306.03
2022-07-25T14:46:31.114Z,98316.63
2022-07-25T14:48:59.306Z,98324.03
2022-07-25T14:51:28.550Z,98317.44
2022-07-25T14:53:57.737Z,98328.84
2022-07-25T14:56:25.677Z,98323.91
2022-07-25T14:58:53.453Z,98323.44
2022-07-25T15:01:24.344Z,98325.25
2022-07-25T15:03:52.582Z,98323.97
2022-07-25T15:06:21.814Z,98322.41
2022-07-25T15:08:52.005Z,98313.44
2022-07-25T15:11:21.881Z,98316.34
2022-07-25T15:13:50.277Z,98317.13
2022-07-25T15:16:19.092Z,98314.13
2022-07-25T15:19:14.665Z,98310.00
2022-07-25T15:21:35.316Z,98306.75
2022-07-25T15:24:03.253Z,98311.63
2022-07-25T15:26:32.687Z,98322.53
2022-07-25T15:29:00.513Z,98320.88
2022-07-25T15:31:28.956Z,98322.31
2022-07-25T15:33:56.975Z,98303.34
2022-07-25T15:36:29.351Z,98308.50
2022-07-25T15:38:58.026Z,98300.75
2022-07-25T15:41:26.659Z,98311.13
2022-07-25T15:43:55.942Z,98312.50
2022-07-25T15:46:23.945Z,98312.31
2022-07-25T15:48:51.811Z,98312.19
2022-07-25T15:51:20.217Z,98317.06
2022-07-25T15:53:48.057Z,98310.03
2022-07-25T15:56:16.339Z,98312.50
2022-07-25T15:58:44.304Z,98314.00
2022-07-25T16:01:13.463Z,98320.84
2022-07-25T16:03:41.357Z,98312.34
2022-07-25T16:06:09.410Z,98309.28
2022-07-25T16:08:37.913Z,98303.97
2022-07-25T16:11:06.315Z,98307.16
2022-07-25T16:13:34.233Z,98300.91
2022-07-25T16:16:02.086Z,98312.97
2022-07-25T16:18:32.272Z,98307.78
2022-07-25T16:21:00.224Z,98307.47
2022-07-25T16:23:28.241Z,98313.84
2022-07-25T16:25:56.311Z,98303.97
2022-07-25T16:28:24.262Z,98309.09
2022-07-25T16:30:52.275Z,98302.03
2022-07-25T16:33:20.214Z,98290.50
2022-07-25T16:35:49.557Z,98290.16
2022-07-25T16:38:17.877Z,98295.06
2022-07-25T16:40:46.072Z,98290.31
2022-07-25T16:43:13.899Z,98276.56
2022-07-25T16:45:43.010Z,98282.22
2022-07-25T16:48:10.895Z,98283.91
2022-07-25T16:50:38.726Z,98282.75
2022-07-25T16:53:08.210Z,98284.69
2022-07-25T16:55:36.031Z,98280.56
2022-07-25T16:58:03.872Z,98274.69
2022-07-25T17:00:31.803Z,98262.47
2022-07-25T17:02:59.748Z,98265.69
2022-07-25T17:05:27.873Z,98257.31
2022-07-25T17:07:59.552Z,98257.75
2022-07-25T17:10:29.906Z,98262.75
2022-07-25T17:12:57.905Z,98256.41
2022-07-25T17:15:25.912Z,98264.63
2022-07-25T17:17:53.704Z,98259.25
2022-07-25T17:20:21.790Z,98259.75
2022-07-25T17:22:49.797Z,98254.66
2022-07-25T17:25:17.766Z,98254.59
2022-07-25T17:27:46.952Z,98254.66
2022-07-25T17:30:14.986Z,98252.06
2022-07-25T17:32:42.826Z,98257.19
2022-07-25T17:35:10.976Z,98262.72
2022-07-25T17:37:38.867Z,98259.19
2022-07-25T17:40:07.757Z,98263.84
2022-07-25T17:42:35.558Z,98265.72
2022-07-25T17:45:06.983Z,98268.31
2022-07-25T17:47:35.243Z,98263.84
2022-07-25T17:50:03.330Z,98266.44
2022-07-25T17:52:31.244Z,98261.66
2022-07-25T17:54:59.604Z,98267.75
2022-07-25T17:57:27.521Z,98268.47
2022-07-25T17:59:55.327Z,98268.56
2022-07-25T18:02:24.657Z,98275.09
2022-07-25T18:04:53.659Z,98270.31
2022-07-25T18:07:21.798Z,98281.22
2022-07-25T18:09:49.588Z,98275.09
2022-07-25T18:12:17.411Z,98278.59
2022-07-25T18:14:45.232Z,98279.09
2022-07-25T18:17:13.275Z,98282.81
2022-07-25T18:19:42.416Z,98289.78
2022-07-25T18:22:10.212Z,98287.28
2022-07-25T18:24:38.393Z,98291.59
2022-07-25T18:27:06.759Z,98292.34
2022-07-25T18:29:37.215Z,98296.84
2022-07-25T18:32:05.571Z,98299.94
2022-07-25T18:34:33.993Z,98311.28
2022-07-25T18:37:03.413Z,98316.41
2022-07-25T18:39:31.504Z,98319.81
2022-07-25T18:41:59.994Z,98325.16
2022-07-25T18:44:28.119Z,98335.97
2022-07-25T18:46:57.087Z,98333.91
2022-07-25T18:49:27.098Z,98346.09
2022-07-25T18:51:54.909Z,98349.19
2022-07-25T18:54:24.348Z,98353.44
2022-07-25T18:56:52.207Z,98364.41
2022-07-25T18:59:20.207Z,98376.50
2022-07-25T19:01:50.014Z,98373.06
2022-07-25T19:04:18.244Z,98362.28
2022-07-25T19:06:46.221Z,98377.06
2022-07-25T19:09:14.204Z,98382.22
2022-07-25T19:11:43.338Z,98390.66
2022-07-25T19:14:11.465Z,98402.94
2022-07-25T19:16:39.307Z,98413.28
2022-07-25T19:19:09.556Z,98407.53
2022-07-25T19:21:37.665Z,98414.00
2022-07-25T19:24:06.459Z,98417.25
2022-07-25T19:26:34.470Z,98427.56
2022-07-25T19:29:06.129Z,98448.25
2022-07-25T19:31:34.306Z,98453.41
2022-07-25T19:34:02.267Z,98448.00
2022-07-25T19:36:29.995Z,98467.16
2022-07-25T19:38:57.736Z,98464.25
2022-07-25T19:41:26.218Z,98468.88
2022-07-25T19:43:54.869Z,98480.13
2022-07-25T19:46:25.027Z,98478.59
2022-07-25T19:48:52.931Z,98488.25
2022-07-25T19:51:20.866Z,98484.22
2022-07-25T19:53:48.777Z,98492.63
2022-07-25T19:56:16.709Z,98495.03
2022-07-25T19:58:45.273Z,98505.13
2022-07-25T20:01:13.343Z,98508.72
2022-07-25T20:03:42.666Z,98505.13
2022-07-25T20:06:10.854Z,98518.25
2022-07-25T20:08:40.192Z,98524.66
2022-07-25T20:11:08.282Z,98530.34
2022-07-25T20:13:36.395Z,98544.88
2022-07-25T20:16:04.819Z,98542.31
2022-07-25T20:18:32.789Z,98550.78
2022-07-25T20:21:02.323Z,98551.69
2022-07-25T20:23:30.723Z,98552.91
2022-07-25T20:26:00.065Z,98557.25
2022-07-25T20:28:27.873Z,98572.13
2022-07-25T20:30:56.281Z,98583.88
2022-07-25T20:33:27.021Z,98585.19
2022-07-25T20:35:55.077Z,98587.84
2022-07-25T20:38:25.481Z,98585.56
2022-07-25T20:40:54.856Z,98580.72
2022-07-25T20:43:23.266Z,98585.38
2022-07-25T20:45:51.261Z,98586.69
2022-07-25T20:48:19.176Z,98585.59
2022-07-25T20:50:47.048Z,98599.59
2022-07-25T20:53:14.891Z,98603.97
2022-07-25T20:55:44.275Z,98606.19
2022-07-25T20:58:12.143Z,98603.66
2022-07-25T21:00:40.098Z,98619.91
2022-07-25T21:03:08.394Z,98617.34
2022-07-25T21:05:37.634Z,98624.81
2022-07-25T21:08:05.775Z,98632.22
2022-07-25T21:10:33.601Z,98633.03
2022-07-25T21:13:02.840Z,98636.53
2022-07-25T21:15:31.630Z,98627.28
2022-07-25T21:17:59.739Z,98637.94
2022-07-25T21:20:27.635Z,98636.59
2022-07-25T21:22:56.349Z,98653.13
2022-07-25T21:25:24.271Z,98653.75
2022-07-25T21:27:52.343Z,98657.47
2022-07-25T21:30:21.926Z,98650.41
2022-07-25T21:32:49.778Z,98650.63
2022-07-25T21:35:18.146Z,98654.56
2022-07-25T21:37:45.945Z,98656.84
2022-07-25T21:40:13.952Z,98666.25
2022-07-25T21:42:43.051Z,98672.13
2022-07-25T21:45:11.930Z,98683.38
2022-07-25T21:47:41.498Z,98685.59
2022-07-25T21:50:30.185Z,98692.66
2022-07-25T21:52:59.443Z,98695.41
2022-07-25T21:55:27.445Z,98694.63
2022-07-25T21:57:55.357Z,98695.56
2022-07-25T22:00:23.682Z,98694.44
2022-07-25T22:02:53.100Z,98697.16
2022-07-25T22:05:21.342Z,98705.44
2022-07-25T22:07:49.715Z,98709.13
2022-07-25T22:10:19.682Z,98711.63
2022-07-25T22:12:47.837Z,98712.84
2022-07-25T22:15:16.226Z,98716.44
2022-07-25T22:17:48.770Z,98718.25
2022-07-25T22:20:19.638Z,98723.31
2022-07-25T22:22:47.839Z,98729.13
2022-07-25T22:25:15.955Z,98739.56
2022-07-25T22:27:43.815Z,98741.97
2022-07-25T22:30:18.299Z,98748.91
2022-07-25T22:32:47.760Z,98748.13
2022-07-25T22:35:15.785Z,98738.84
2022-07-25T22:37:45.446Z,98737.00
2022-07-25T22:40:14.701Z,98739.66
2022-07-25T22:42:42.774Z,98744.97
2022-07-25T22:45:11.647Z,98760.50
2022-07-25T22:47:39.614Z,98760.50
2022-07-25T22:50:09.563Z,98766.47
2022-07-25T22:52:37.343Z,98763.16
2022-07-25T22:55:07.310Z,98762.13
2022-07-25T22:57:37.121Z,98768.03
2022-07-25T23:00:06.931Z,98765.75
2022-07-25T23:02:34.786Z,98768.31
2022-07-25T23:05:02.678Z,98765.28
2022-07-25T23:07:30.455Z,98764.19
2022-07-25T23:09:58.234Z,98763.13
2022-07-25T23:12:27.383Z,98767.03
2022-07-25T23:14:55.220Z,98761.13
2022-07-25T23:17:24.613Z,98753.38
2022-07-25T23:19:54.846Z,98752.94
2022-07-25T23:22:23.254Z,98752.22
2022-07-25T23:24:51.067Z,98758.47
2022-07-25T23:27:19.313Z,98765.03
2022-07-25T23:29:48.482Z,98767.50
2022-07-25T23:32:16.447Z,98767.22
2022-07-25T23:34:44.958Z,98772.97
2022-07-25T23:37:12.915Z,98780.56
2022-07-25T23:39:40.991Z,98784.72
2022-07-25T23:42:08.903Z,98792.00
2022-07-25T23:44:36.666Z,98804.91
2022-07-25T23:47:10.080Z,98805.44
2022-07-25T23:49:38.594Z,98820.72
2022-07-25T23:52:06.861Z,98813.44
2022-07-25T23:54:35.685Z,98820.78
2022-07-25T23:57:03.762Z,98824.91
2022-07-25T23:59:31.944Z,98823.91
